sensor_id;sensor_type;location;lat;lon;timestamp;pressure;altitude;pressure_sealevel;temperature;humidity
62420;BME280;48460;51.616;5.426;2023-01-29T09:38:11;102655.56;;;0.64;100.00
62420;BME280;48460;51.616;5.426;2023-01-29T09:44:51;102672.25;;;0.79;100.00
62420;BME280;48460;51.616;5.426;2023-01-29T09:48:07;102666.16;;;0.77;100.00
62420;BME280;48460;51.616;5.426;2023-01-29T09:51:45;102658.38;;;0.77;100.00
62420;BME280;48460;51.616;5.426;2023-01-29T09:58:40;102674.13;;;0.87;100.00
62420;BME280;48460;51.616;5.426;2023-01-29T10:18:42;102668.41;;;1.07;100.00
62420;BME280;48460;51.616;5.426;2023-01-29T10:22:08;102671.84;;;1.06;100.00
62420;BME280;48460;51.616;5.426;2023-01-29T10:29:09;102671.09;;;1.13;100.00
62420;BME280;48460;51.616;5.426;2023-01-29T10:32:28;102668.50;;;1.13;100.00
62420;BME280;48460;51.616;5.426;2023-01-29T10:36:12;102669.50;;;1.21;100.00
62420;BME280;48460;51.616;5.426;2023-01-29T10:39:50;102660.91;;;1.24;100.00
62420;BME280;48460;51.616;5.426;2023-01-29T11:00:44;102617.91;;;1.35;100.00
62420;BME280;48460;51.616;5.426;2023-01-29T11:04:30;102619.75;;;1.44;100.00
62420;BME280;48460;51.616;5.426;2023-01-29T11:07:57;102618.97;;;1.51;100.00
62420;BME280;48460;51.616;5.426;2023-01-29T11:17:25;102590.66;;;1.66;100.00
62420;BME280;48460;51.616;5.426;2023-01-29T11:21:03;102588.22;;;1.78;100.00
62420;BME280;48460;51.616;5.426;2023-01-29T11:24:29;102574.41;;;1.79;100.00
62420;BME280;48460;51.616;5.426;2023-01-29T11:27:42;102577.00;;;1.81;100.00
62420;BME280;48460;51.616;5.426;2023-01-29T11:31:14;102568.44;;;1.87;100.00
62420;BME280;48460;51.616;5.426;2023-01-29T11:34:17;102540.75;;;1.86;100.00
62420;BME280;48460;51.616;5.426;2023-01-29T11:37:19;102539.94;;;1.88;99.98
62420;BME280;48460;51.616;5.426;2023-01-29T11:44:15;102534.06;;;2.06;99.89
62420;BME280;48460;51.616;5.426;2023-01-29T11:50:54;102526.22;;;2.01;97.71
62420;BME280;48460;51.616;5.426;2023-01-29T11:53:57;102514.09;;;1.99;99.03
62420;BME280;48460;51.616;5.426;2023-01-29T12:03:34;102500.47;;;2.20;98.75
62420;BME280;48460;51.616;5.426;2023-01-29T12:07:12;102508.25;;;2.20;98.67
62420;BME280;48460;51.616;5.426;2023-01-29T12:13:39;102499.59;;;2.18;99.03
62420;BME280;48460;51.616;5.426;2023-01-29T12:23:19;102486.50;;;2.07;99.37
62420;BME280;48460;51.616;5.426;2023-01-29T12:26:14;102468.28;;;1.99;99.28
62420;BME280;48460;51.616;5.426;2023-01-29T12:36:38;102465.78;;;2.10;100.00
62420;BME280;48460;51.616;5.426;2023-01-29T12:39:22;102450.16;;;2.02;100.00
62420;BME280;48460;51.616;5.426;2023-01-29T12:42:15;102452.75;;;2.04;100.00
62420;BME280;48460;51.616;5.426;2023-01-29T12:48:11;102431.97;;;2.01;100.00
62420;BME280;48460;51.616;5.426;2023-01-29T12:51:32;102431.97;;;2.01;100.00
62420;BME280;48460;51.616;5.426;2023-01-29T12:54:11;102435.44;;;2.04;100.00
62420;BME280;48460;51.616;5.426;2023-01-29T12:57:01;102425.88;;;1.99;100.00
62420;BME280;48460;51.616;5.426;2023-01-29T12:59:56;102424.22;;;2.02;100.00
62420;BME280;48460;51.616;5.426;2023-01-29T13:19:34;102388.78;;;2.09;100.00
62420;BME280;48460;51.616;5.426;2023-01-29T13:29:12;102380.28;;;2.27;100.00
62420;BME280;48460;51.616;5.426;2023-01-29T13:35:41;102351.72;;;2.28;100.00
62420;BME280;48460;51.616;5.426;2023-01-29T13:41:38;102352.59;;;2.27;100.00
62420;BME280;48460;51.616;5.426;2023-01-29T13:47:50;102340.47;;;2.23;100.00
62420;BME280;48460;51.616;5.426;2023-01-29T13:50:43;102344.84;;;2.34;100.00
62420;BME280;48460;51.616;5.426;2023-01-29T13:53:24;102339.56;;;2.23;100.00
62420;BME280;48460;51.616;5.426;2023-01-29T13:59:05;102350.88;;;2.31;100.00
62420;BME280;48460;51.616;5.426;2023-01-29T14:04:30;102326.59;;;2.23;100.00
62420;BME280;48460;51.616;5.426;2023-01-29T14:34:06;102311.91;;;2.23;100.00
62420;BME280;48460;51.616;5.426;2023-01-29T14:56:14;102299.94;;;2.47;100.00
62420;BME280;48460;51.616;5.426;2023-01-29T15:16:29;102279.16;;;2.47;100.00
62420;BME280;48460;51.616;5.426;2023-01-29T15:18:47;102280.00;;;2.49;100.00
62420;BME280;48460;51.616;5.426;2023-01-29T15:21:27;102267.00;;;2.46;100.00
62420;BME280;48460;51.616;5.426;2023-01-29T15:24:11;102273.97;;;2.50;100.00
62420;BME280;48460;51.616;5.426;2023-01-29T15:26:50;102242.75;;;2.36;100.00
62420;BME280;48460;51.616;5.426;2023-01-29T15:29:27;102255.72;;;2.41;100.00
62420;BME280;48460;51.616;5.426;2023-01-29T15:31:55;102246.22;;;2.35;100.00
62420;BME280;48460;51.616;5.426;2023-01-29T15:34:21;102252.28;;;2.40;100.00
62420;BME280;48460;51.616;5.426;2023-01-29T15:36:48;102251.41;;;2.40;100.00
62420;BME280;48460;51.616;5.426;2023-01-29T15:39:26;102254.88;;;2.40;100.00
62420;BME280;48460;51.616;5.426;2023-01-29T15:42:12;102260.97;;;2.45;100.00
62420;BME280;48460;51.616;5.426;2023-01-29T15:44:57;102237.56;;;2.41;100.00
62420;BME280;48460;51.616;5.426;2023-01-29T15:47:26;102235.81;;;2.32;100.00
62420;BME280;48460;51.616;5.426;2023-01-29T15:49:59;102233.22;;;2.32;100.00
62420;BME280;48460;51.616;5.426;2023-01-29T15:52:27;102234.09;;;2.39;100.00
62420;BME280;48460;51.616;5.426;2023-01-29T15:55:19;102221.94;;;2.32;100.00
62420;BME280;48460;51.616;5.426;2023-01-29T15:57:54;102215.03;;;2.31;100.00
62420;BME280;48460;51.616;5.426;2023-01-29T16:00:23;102219.34;;;2.27;100.00
62420;BME280;48460;51.616;5.426;2023-01-29T16:02:58;102215.00;;;2.24;100.00
62420;BME280;48460;51.616;5.426;2023-01-29T16:05:36;102219.31;;;2.25;100.00
62420;BME280;48460;51.616;5.426;2023-01-29T16:08:04;102211.53;;;2.22;100.00
62420;BME280;48460;51.616;5.426;2023-01-29T16:10:47;102208.09;;;2.23;100.00
62420;BME280;48460;51.616;5.426;2023-01-29T16:13:29;102204.63;;;2.24;100.00
62420;BME280;48460;51.616;5.426;2023-01-29T16:16:20;102205.47;;;2.25;100.00
62420;BME280;48460;51.616;5.426;2023-01-29T16:18:50;102191.66;;;2.24;100.00
62420;BME280;48460;51.616;5.426;2023-01-29T16:21:38;102192.50;;;2.23;100.00
62420;BME280;48460;51.616;5.426;2023-01-29T16:24:13;102192.50;;;2.20;100.00
62420;BME280;48460;51.616;5.426;2023-01-29T16:26:52;102189.91;;;2.22;100.00
62420;BME280;48460;51.616;5.426;2023-01-29T16:29:35;102205.50;;;2.23;100.00
62420;BME280;48460;51.616;5.426;2023-01-29T16:32:05;102202.00;;;2.23;100.00
62420;BME280;48460;51.616;5.426;2023-01-29T16:35:05;102194.22;;;2.20;100.00
62420;BME280;48460;51.616;5.426;2023-01-29T17:15:57;102163.00;;;2.08;100.00
62420;BME280;48460;51.616;5.426;2023-01-29T17:22:17;102171.66;;;2.11;100.00
62420;BME280;48460;51.616;5.426;2023-01-29T17:28:31;102179.53;;;2.17;100.00
62420;BME280;48460;51.616;5.426;2023-01-29T17:31:28;102162.19;;;2.16;100.00
62420;BME280;48460;51.616;5.426;2023-01-29T17:37:59;102178.63;;;2.17;100.00
62420;BME280;48460;51.616;5.426;2023-01-29T17:40:45;102158.69;;;2.08;100.00
62420;BME280;48460;51.616;5.426;2023-01-29T17:43:54;102161.31;;;2.10;100.00
62420;BME280;48460;51.616;5.426;2023-01-29T17:46:23;102153.50;;;2.08;100.00
62420;BME280;48460;51.616;5.426;2023-01-29T17:52:20;102156.13;;;2.13;100.00
62420;BME280;48460;51.616;5.426;2023-01-29T17:54:56;102150.88;;;2.05;100.00
62420;BME280;48460;51.616;5.426;2023-01-29T17:57:33;102142.28;;;2.06;100.00
62420;BME280;48460;51.616;5.426;2023-01-29T17:59:58;102161.34;;;2.14;100.00
62420;BME280;48460;51.616;5.426;2023-01-29T18:02:44;102138.81;;;2.09;100.00
62420;BME280;48460;51.616;5.426;2023-01-29T18:05:11;102146.63;;;2.12;100.00
62420;BME280;48460;51.616;5.426;2023-01-29T18:07:40;102151.81;;;2.15;100.00
62420;BME280;48460;51.616;5.426;2023-01-29T18:10:24;102130.19;;;2.14;100.00
62420;BME280;48460;51.616;5.426;2023-01-29T18:12:52;102146.63;;;2.15;100.00
62420;BME280;48460;51.616;5.426;2023-01-29T18:15:20;102143.19;;;2.17;100.00
62420;BME280;48460;51.616;5.426;2023-01-29T18:17:48;102144.03;;;2.22;100.00
62420;BME280;48460;51.616;5.426;2023-01-29T18:20:23;102147.50;;;2.20;100.00
62420;BME280;48460;51.616;5.426;2023-01-29T18:22:55;102140.56;;;2.16;100.00
62420;BME280;48460;51.616;5.426;2023-01-29T18:25:21;102142.28;;;2.11;100.00
62420;BME280;48460;51.616;5.426;2023-01-29T18:27:47;102134.47;;;2.08;100.00
62420;BME280;48460;51.616;5.426;2023-01-29T18:30:15;102125.84;;;2.09;100.00
62420;BME280;48460;51.616;5.426;2023-01-29T18:32:43;102134.56;;;2.31;100.00
62420;BME280;48460;51.616;5.426;2023-01-29T18:35:14;102119.78;;;2.11;100.00
62420;BME280;48460;51.616;5.426;2023-01-29T18:37:42;102116.34;;;2.09;100.00
62420;BME280;48460;51.616;5.426;2023-01-29T18:40:18;102104.22;;;2.10;100.00
62420;BME280;48460;51.616;5.426;2023-01-29T18:42:46;102105.94;;;2.14;100.00
62420;BME280;48460;51.616;5.426;2023-01-29T18:45:12;102093.84;;;2.10;100.00
62420;BME280;48460;51.616;5.426;2023-01-29T18:47:40;102097.31;;;2.15;100.00
62420;BME280;48460;51.616;5.426;2023-01-29T18:50:10;102074.78;;;2.08;100.00
62420;BME280;48460;51.616;5.426;2023-01-29T18:55:58;102071.38;;;2.09;100.00
62420;BME280;48460;51.616;5.426;2023-01-29T18:58:27;102077.41;;;2.11;100.00
62420;BME280;48460;51.616;5.426;2023-01-29T19:00:55;102083.50;;;2.14;100.00
62420;BME280;48460;51.616;5.426;2023-01-29T19:03:24;102067.88;;;2.05;100.00
62420;BME280;48460;51.616;5.426;2023-01-29T19:06:03;102069.59;;;2.08;100.00
62420;BME280;48460;51.616;5.426;2023-01-29T19:08:29;102062.69;;;2.08;100.00
62420;BME280;48460;51.616;5.426;2023-01-29T19:10:57;102057.50;;;2.05;100.00
62420;BME280;48460;51.616;5.426;2023-01-29T19:13:41;102041.06;;;2.04;100.00
62420;BME280;48460;51.616;5.426;2023-01-29T19:16:10;102040.22;;;2.07;100.00
62420;BME280;48460;51.616;5.426;2023-01-29T19:18:41;102028.97;;;2.03;100.00
62420;BME280;48460;51.616;5.426;2023-01-29T19:21:13;102028.13;;;2.09;100.00
62420;BME280;48460;51.616;5.426;2023-01-29T19:23:43;102018.56;;;2.05;100.00
62420;BME280;48460;51.616;5.426;2023-01-29T19:26:10;102022.91;;;2.08;100.00
62420;BME280;48460;51.616;5.426;2023-01-29T19:28:40;102023.78;;;2.10;100.00
62420;BME280;48460;51.616;5.426;2023-01-29T19:31:14;102001.28;;;2.01;100.00
62420;BME280;48460;51.616;5.426;2023-01-29T19:33:42;102008.19;;;2.05;100.00
62420;BME280;48460;51.616;5.426;2023-01-29T19:36:10;102002.16;;;2.09;100.00
62420;BME280;48460;51.616;5.426;2023-01-29T19:38:47;101990.03;;;2.08;100.00
62420;BME280;48460;51.616;5.426;2023-01-29T19:41:18;101990.06;;;2.14;100.00
62420;BME280;48460;51.616;5.426;2023-01-29T19:43:44;101987.47;;;2.13;100.00
62420;BME280;48460;51.616;5.426;2023-01-29T19:46:13;101969.28;;;2.10;100.00
62420;BME280;48460;51.616;5.426;2023-01-29T19:48:48;101968.44;;;2.12;100.00
62420;BME280;48460;51.616;5.426;2023-01-29T19:51:37;101977.09;;;2.17;100.00
62420;BME280;48460;51.616;5.426;2023-01-29T19:54:13;101968.44;;;2.20;100.00
62420;BME280;48460;51.616;5.426;2023-01-29T19:56:45;101945.06;;;2.17;100.00
62420;BME280;48460;51.616;5.426;2023-01-29T19:59:20;101943.34;;;2.22;100.00
62420;BME280;48460;51.616;5.426;2023-01-29T20:01:49;101955.47;;;2.18;100.00
62420;BME280;48460;51.616;5.426;2023-01-29T20:04:26;101937.31;;;2.18;100.00
62420;BME280;48460;51.616;5.426;2023-01-29T20:06:57;101950.28;;;2.31;100.00
62420;BME280;48460;51.616;5.426;2023-01-29T20:09:25;101964.97;;;2.22;100.00
62420;BME280;48460;51.616;5.426;2023-01-29T20:11:55;101965.84;;;2.21;100.00
62420;BME280;48460;51.616;5.426;2023-01-29T20:14:35;101973.66;;;2.32;100.00
62420;BME280;48460;51.616;5.426;2023-01-29T20:17:01;101977.97;;;2.27;100.00
62420;BME280;48460;51.616;5.426;2023-01-29T20:19:34;101970.16;;;2.25;100.00
62420;BME280;48460;51.616;5.426;2023-01-29T20:22:04;101957.19;;;2.32;100.00
62420;BME280;48460;51.616;5.426;2023-01-29T20:24:33;101962.38;;;2.32;100.00
62420;BME280;48460;51.616;5.426;2023-01-29T20:27:10;101958.06;;;2.35;100.00
62420;BME280;48460;51.616;5.426;2023-01-29T20:29:48;101953.75;;;2.30;100.00
62420;BME280;48460;51.616;5.426;2023-01-29T20:32:25;101958.06;;;2.31;100.00
62420;BME280;48460;51.616;5.426;2023-01-29T20:34:52;101948.56;;;2.30;100.00
62420;BME280;48460;51.616;5.426;2023-01-29T20:37:24;101962.38;;;2.35;100.00
62420;BME280;48460;51.616;5.426;2023-01-29T20:39:50;101950.28;;;2.37;100.00
62420;BME280;48460;51.616;5.426;2023-01-29T20:42:47;101947.69;;;2.37;100.00
62420;BME280;48460;51.616;5.426;2023-01-29T20:45:16;101939.00;;;2.44;100.00
62420;BME280;48460;51.616;5.426;2023-01-29T20:47:52;101930.38;;;2.39;100.00
62420;BME280;48460;51.616;5.426;2023-01-29T20:51:03;101949.41;;;2.50;100.00
62420;BME280;48460;51.616;5.426;2023-01-29T20:53:53;101944.22;;;2.42;100.00
62420;BME280;48460;51.616;5.426;2023-01-29T20:56:22;101952.00;;;2.39;100.00
62420;BME280;48460;51.616;5.426;2023-01-29T20:58:48;101955.47;;;2.43;100.00
62420;BME280;48460;51.616;5.426;2023-01-29T21:01:27;101955.47;;;2.44;100.00
62420;BME280;48460;51.616;5.426;2023-01-29T21:03:53;101932.97;;;2.40;100.00
62420;BME280;48460;51.616;5.426;2023-01-29T21:06:23;101933.84;;;2.42;100.00
62420;BME280;48460;51.616;5.426;2023-01-29T21:09:12;101931.25;;;2.42;100.00
62420;BME280;48460;51.616;5.426;2023-01-29T21:11:47;101939.00;;;2.44;100.00
62420;BME280;48460;51.616;5.426;2023-01-29T21:14:14;101954.59;;;2.50;100.00
62420;BME280;48460;51.616;5.426;2023-01-29T21:16:42;101945.91;;;2.56;100.00
62420;BME280;48460;51.616;5.426;2023-01-29T21:19:15;101945.91;;;2.56;100.00
62420;BME280;48460;51.616;5.426;2023-01-29T21:21:43;101945.94;;;2.53;100.00
62420;BME280;48460;51.616;5.426;2023-01-29T21:24:29;101951.97;;;2.64;100.00
62420;BME280;48460;51.616;5.426;2023-01-29T21:26:57;101933.84;;;2.56;100.00
62420;BME280;48460;51.616;5.426;2023-01-29T21:29:25;101936.44;;;2.59;100.00
62420;BME280;48460;51.616;5.426;2023-01-29T21:31:59;101932.09;;;2.60;100.00
62420;BME280;48460;51.616;5.426;2023-01-29T21:34:34;101952.84;;;2.72;100.00
62420;BME280;48460;51.616;5.426;2023-01-29T21:37:03;101921.69;;;2.64;100.00
62420;BME280;48460;51.616;5.426;2023-01-29T21:39:30;101928.59;;;2.71;100.00
62420;BME280;48460;51.616;5.426;2023-01-29T21:41:58;101919.03;;;2.77;100.00
62420;BME280;48460;51.616;5.426;2023-01-29T21:44:46;101914.72;;;2.79;100.00
62420;BME280;48460;51.616;5.426;2023-01-29T21:47:15;101920.78;;;2.82;100.00
62420;BME280;48460;51.616;5.426;2023-01-29T21:49:50;101927.72;;;2.80;100.00
62420;BME280;48460;51.616;5.426;2023-01-29T21:52:19;101941.56;;;2.94;100.00
62420;BME280;48460;51.616;5.426;2023-01-29T21:54:53;101919.06;;;2.86;100.00
62420;BME280;48460;51.616;5.426;2023-01-29T21:57:25;101938.97;;;2.87;100.00
62420;BME280;48460;51.616;5.426;2023-01-29T21:59:52;101934.59;;;2.93;100.00
62420;BME280;48460;51.616;5.426;2023-01-29T22:02:57;101934.59;;;3.00;100.00
62420;BME280;48460;51.616;5.426;2023-01-29T22:05:30;101932.88;;;2.99;100.00
62420;BME280;48460;51.616;5.426;2023-01-29T22:07:58;101902.56;;;2.97;100.00
62420;BME280;48460;51.616;5.426;2023-01-29T22:10:24;101893.03;;;3.01;100.00
62420;BME280;48460;51.616;5.426;2023-01-29T22:12:57;101911.22;;;3.01;100.00
62420;BME280;48460;51.616;5.426;2023-01-29T22:15:24;101893.00;;;3.03;100.00
62420;BME280;48460;51.616;5.426;2023-01-29T22:17:53;101889.47;;;3.14;100.00
62420;BME280;48460;51.616;5.426;2023-01-29T22:20:21;101851.41;;;3.10;100.00
62420;BME280;48460;51.616;5.426;2023-01-29T22:23:10;101817.63;;;3.03;100.00
62420;BME280;48460;51.616;5.426;2023-01-29T22:25:40;101812.44;;;3.03;100.00
62420;BME280;48460;51.616;5.426;2023-01-29T22:28:10;101789.84;;;3.17;100.00
62420;BME280;48460;51.616;5.426;2023-01-29T22:30:38;101792.53;;;3.02;100.00
62420;BME280;48460;51.616;5.426;2023-01-29T22:33:11;101818.50;;;3.05;100.00
62420;BME280;48460;51.616;5.426;2023-01-29T22:35:43;101813.31;;;3.03;100.00
62420;BME280;48460;51.616;5.426;2023-01-29T22:38:13;101818.47;;;3.09;100.00
62420;BME280;48460;51.616;5.426;2023-01-29T22:40:48;101848.81;;;3.06;100.00
62420;BME280;48460;51.616;5.426;2023-01-29T22:43:16;101805.50;;;3.05;100.00
62420;BME280;48460;51.616;5.426;2023-01-29T22:45:45;101821.09;;;3.05;100.00
62420;BME280;48460;51.616;5.426;2023-01-29T22:48:32;101816.72;;;3.11;100.00
62420;BME280;48460;51.616;5.426;2023-01-29T22:51:15;101803.72;;;3.11;100.00
62420;BME280;48460;51.616;5.426;2023-01-29T22:53:48;101805.47;;;3.09;100.00
62420;BME280;48460;51.616;5.426;2023-01-29T22:56:14;101793.34;;;3.08;100.00
62420;BME280;48460;51.616;5.426;2023-01-29T22:58:44;101825.34;;;3.21;100.00
62420;BME280;48460;51.616;5.426;2023-01-29T23:01:33;101811.50;;;3.19;100.00
62420;BME280;48460;51.616;5.426;2023-01-29T23:04:09;101787.25;;;3.14;100.00
62420;BME280;48460;51.616;5.426;2023-01-29T23:06:43;101808.91;;;3.17;100.00
62420;BME280;48460;51.616;5.426;2023-01-29T23:09:12;101774.25;;;3.18;100.00
62420;BME280;48460;51.616;5.426;2023-01-29T23:11:39;101747.44;;;3.10;100.00
62420;BME280;48460;51.616;5.426;2023-01-29T23:14:14;101746.56;;;3.13;100.00
62420;BME280;48460;51.616;5.426;2023-01-29T23:17:06;101749.94;;;3.26;100.00
62420;BME280;48460;51.616;5.426;2023-01-29T23:19:39;101749.16;;;3.16;100.00
62420;BME280;48460;51.616;5.426;2023-01-29T23:22:11;101763.84;;;3.20;100.00
62420;BME280;48460;51.616;5.426;2023-01-29T23:27:25;101768.13;;;3.24;100.00
62420;BME280;48460;51.616;5.426;2023-01-29T23:29:51;101756.91;;;3.20;100.00
62420;BME280;48460;51.616;5.426;2023-01-29T23:32:23;101751.69;;;3.25;100.00
62420;BME280;48460;51.616;5.426;2023-01-29T23:34:50;101755.13;;;3.27;100.00
62420;BME280;48460;51.616;5.426;2023-01-29T23:37:21;101749.00;;;3.34;100.00
62420;BME280;48460;51.616;5.426;2023-01-29T23:40:15;101748.97;;;3.39;100.00
62420;BME280;48460;51.616;5.426;2023-01-29T23:42:41;101752.44;;;3.38;100.00
62420;BME280;48460;51.616;5.426;2023-01-29T23:45:09;101736.88;;;3.36;100.00
62420;BME280;48460;51.616;5.426;2023-01-29T23:47:34;101733.34;;;3.39;100.00
62420;BME280;48460;51.616;5.426;2023-01-29T23:50:08;101719.53;;;3.37;100.00
62420;BME280;48460;51.616;5.426;2023-01-29T23:52:38;101714.22;;;3.49;100.00
62420;BME280;48460;51.616;5.426;2023-01-29T23:55:06;101717.75;;;3.40;100.00
62420;BME280;48460;51.616;5.426;2023-01-29T23:57:36;101719.41;;;3.48;100.00
